KRS weather

Kristiansand Airport
Kjevik, Vest-Agder, Norway

Public forecast

Using degrees Celsius for public forecast. Weather courtesy of forecast.io.

Current aviation weather report (METAR) for Kristiansand Airport

Retrieved 2019/11/22 18:50 UTC (57 minutes ago):

ENCN 221850Z 10004KT 9999 FEW007 BKN021 08/08 Q1011

Aviation forecast (TAF) for Kristiansand Airport

Forecast is more than 12 hours old.

Retrieved 2016/05/06 12:39 UTC (4 years ago):

TAF TAF ENCN 061100Z 0612/0712 14008KT 9999 FEW040